sensor_id;sensor_type;location;lat;lon;timestamp;P1;durP1;ratioP1;P2;durP2;ratioP2
60488;SDS011;46331;49.252;8.904;2023-11-19T00:00:22;8.98;;;2.05;;
60488;SDS011;46331;49.252;8.904;2023-11-19T00:01:03;4.60;;;1.70;;
60488;SDS011;46331;49.252;8.904;2023-11-19T00:01:45;5.70;;;1.80;;
60488;SDS011;46331;49.252;8.904;2023-11-19T00:02:27;6.45;;;1.90;;
60488;SDS011;46331;49.252;8.904;2023-11-19T00:03:07;5.97;;;2.15;;
60488;SDS011;46331;49.252;8.904;2023-11-19T00:03:48;6.03;;;1.80;;
60488;SDS011;46331;49.252;8.904;2023-11-19T00:04:29;6.72;;;2.13;;
60488;SDS011;46331;49.252;8.904;2023-11-19T00:05:10;5.60;;;1.70;;
60488;SDS011;46331;49.252;8.904;2023-11-19T00:05:51;5.00;;;1.70;;
60488;SDS011;46331;49.252;8.904;2023-11-19T00:06:32;6.70;;;1.77;;
60488;SDS011;46331;49.252;8.904;2023-11-19T00:07:13;6.28;;;1.60;;
60488;SDS011;46331;49.252;8.904;2023-11-19T00:07:54;5.00;;;1.45;;
60488;SDS011;46331;49.252;8.904;2023-11-19T00:08:35;5.22;;;1.55;;
60488;SDS011;46331;49.252;8.904;2023-11-19T00:09:16;5.67;;;1.60;;
60488;SDS011;46331;49.252;8.904;2023-11-19T00:09:58;6.32;;;1.50;;
60488;SDS011;46331;49.252;8.904;2023-11-19T00:10:39;5.55;;;1.67;;
60488;SDS011;46331;49.252;8.904;2023-11-19T00:11:20;6.68;;;2.67;;
60488;SDS011;46331;49.252;8.904;2023-11-19T00:12:01;3.93;;;1.40;;
60488;SDS011;46331;49.252;8.904;2023-11-19T00:12:42;4.32;;;1.50;;
60488;SDS011;46331;49.252;8.904;2023-11-19T00:13:24;6.28;;;1.55;;
60488;SDS011;46331;49.252;8.904;2023-11-19T00:14:06;4.82;;;1.63;;
60488;SDS011;46331;49.252;8.904;2023-11-19T00:14:48;4.73;;;1.60;;
60488;SDS011;46331;49.252;8.904;2023-11-19T00:15:29;5.50;;;1.45;;
60488;SDS011;46331;49.252;8.904;2023-11-19T00:16:10;5.18;;;1.40;;
60488;SDS011;46331;49.252;8.904;2023-11-19T00:16:50;4.53;;;1.40;;
60488;SDS011;46331;49.252;8.904;2023-11-19T00:17:31;4.38;;;1.30;;
60488;SDS011;46331;49.252;8.904;2023-11-19T00:18:11;4.43;;;1.30;;
60488;SDS011;46331;49.252;8.904;2023-11-19T00:18:52;3.83;;;1.20;;
60488;SDS011;46331;49.252;8.904;2023-11-19T00:19:33;3.90;;;1.27;;
60488;SDS011;46331;49.252;8.904;2023-11-19T00:20:14;4.20;;;1.38;;
60488;SDS011;46331;49.252;8.904;2023-11-19T00:20:56;4.18;;;1.25;;
60488;SDS011;46331;49.252;8.904;2023-11-19T00:21:36;4.97;;;1.50;;
60488;SDS011;46331;49.252;8.904;2023-11-19T00:22:17;6.57;;;1.40;;
60488;SDS011;46331;49.252;8.904;2023-11-19T00:22:57;5.17;;;1.50;;
60488;SDS011;46331;49.252;8.904;2023-11-19T00:23:38;4.75;;;1.20;;
60488;SDS011;46331;49.252;8.904;2023-11-19T00:24:19;4.23;;;1.30;;
60488;SDS011;46331;49.252;8.904;2023-11-19T00:25:00;4.72;;;1.52;;
60488;SDS011;46331;49.252;8.904;2023-11-19T00:25:41;3.92;;;1.40;;
60488;SDS011;46331;49.252;8.904;2023-11-19T00:26:21;4.77;;;1.33;;
60488;SDS011;46331;49.252;8.904;2023-11-19T00:27:06;3.97;;;1.27;;
60488;SDS011;46331;49.252;8.904;2023-11-19T00:27:48;3.65;;;1.15;;
60488;SDS011;46331;49.252;8.904;2023-11-19T00:28:28;5.17;;;1.33;;
60488;SDS011;46331;49.252;8.904;2023-11-19T00:29:09;4.43;;;1.70;;
60488;SDS011;46331;49.252;8.904;2023-11-19T00:29:50;4.95;;;1.40;;
60488;SDS011;46331;49.252;8.904;2023-11-19T00:30:31;5.80;;;2.33;;
60488;SDS011;46331;49.252;8.904;2023-11-19T00:31:11;4.00;;;1.52;;
60488;SDS011;46331;49.252;8.904;2023-11-19T00:31:52;4.00;;;1.50;;
60488;SDS011;46331;49.252;8.904;2023-11-19T00:32:33;5.95;;;2.22;;
60488;SDS011;46331;49.252;8.904;2023-11-19T00:33:14;5.15;;;1.85;;
60488;SDS011;46331;49.252;8.904;2023-11-19T00:33:54;5.90;;;2.30;;
60488;SDS011;46331;49.252;8.904;2023-11-19T00:34:35;10.63;;;2.30;;
60488;SDS011;46331;49.252;8.904;2023-11-19T00:35:16;6.43;;;2.27;;
60488;SDS011;46331;49.252;8.904;2023-11-19T00:35:56;5.82;;;1.95;;
60488;SDS011;46331;49.252;8.904;2023-11-19T00:36:37;5.10;;;1.77;;
60488;SDS011;46331;49.252;8.904;2023-11-19T00:37:18;6.33;;;1.87;;
60488;SDS011;46331;49.252;8.904;2023-11-19T00:37:58;5.50;;;1.95;;
60488;SDS011;46331;49.252;8.904;2023-11-19T00:38:39;4.77;;;1.77;;
60488;SDS011;46331;49.252;8.904;2023-11-19T00:39:20;5.43;;;2.10;;
60488;SDS011;46331;49.252;8.904;2023-11-19T00:40:01;5.25;;;1.90;;
60488;SDS011;46331;49.252;8.904;2023-11-19T00:40:45;4.90;;;2.00;;
60488;SDS011;46331;49.252;8.904;2023-11-19T00:41:25;5.43;;;2.00;;
60488;SDS011;46331;49.252;8.904;2023-11-19T00:42:06;6.00;;;1.90;;
60488;SDS011;46331;49.252;8.904;2023-11-19T00:42:47;4.65;;;1.77;;
60488;SDS011;46331;49.252;8.904;2023-11-19T00:43:28;7.22;;;2.30;;
60488;SDS011;46331;49.252;8.904;2023-11-19T00:44:09;5.00;;;2.10;;
60488;SDS011;46331;49.252;8.904;2023-11-19T00:44:52;4.63;;;1.80;;
60488;SDS011;46331;49.252;8.904;2023-11-19T00:45:33;4.50;;;1.70;;
60488;SDS011;46331;49.252;8.904;2023-11-19T00:46:13;5.22;;;2.00;;
60488;SDS011;46331;49.252;8.904;2023-11-19T00:46:54;6.47;;;1.90;;
60488;SDS011;46331;49.252;8.904;2023-11-19T00:47:34;5.28;;;1.60;;
60488;SDS011;46331;49.252;8.904;2023-11-19T00:48:15;4.67;;;1.90;;
60488;SDS011;46331;49.252;8.904;2023-11-19T00:48:57;4.38;;;1.67;;
60488;SDS011;46331;49.252;8.904;2023-11-19T00:49:39;5.60;;;1.80;;
60488;SDS011;46331;49.252;8.904;2023-11-19T00:50:20;5.60;;;1.92;;
60488;SDS011;46331;49.252;8.904;2023-11-19T00:51:00;5.03;;;2.00;;
60488;SDS011;46331;49.252;8.904;2023-11-19T00:51:41;4.70;;;1.80;;
60488;SDS011;46331;49.252;8.904;2023-11-19T00:52:21;6.28;;;2.10;;
60488;SDS011;46331;49.252;8.904;2023-11-19T00:53:02;5.13;;;1.83;;
60488;SDS011;46331;49.252;8.904;2023-11-19T00:53:44;5.22;;;2.08;;
60488;SDS011;46331;49.252;8.904;2023-11-19T00:54:24;5.65;;;1.80;;
60488;SDS011;46331;49.252;8.904;2023-11-19T00:55:06;5.17;;;1.70;;
60488;SDS011;46331;49.252;8.904;2023-11-19T00:55:47;6.35;;;1.98;;
60488;SDS011;46331;49.252;8.904;2023-11-19T00:56:28;5.63;;;2.00;;
60488;SDS011;46331;49.252;8.904;2023-11-19T00:57:09;5.40;;;1.88;;
60488;SDS011;46331;49.252;8.904;2023-11-19T00:57:49;6.43;;;1.60;;
60488;SDS011;46331;49.252;8.904;2023-11-19T00:58:30;5.10;;;1.88;;
60488;SDS011;46331;49.252;8.904;2023-11-19T00:59:11;5.20;;;1.80;;
60488;SDS011;46331;49.252;8.904;2023-11-19T00:59:52;4.63;;;1.80;;
60488;SDS011;46331;49.252;8.904;2023-11-19T01:00:32;4.65;;;1.63;;
60488;SDS011;46331;49.252;8.904;2023-11-19T01:01:13;6.13;;;2.00;;
60488;SDS011;46331;49.252;8.904;2023-11-19T01:01:54;5.15;;;1.58;;
60488;SDS011;46331;49.252;8.904;2023-11-19T01:02:36;6.03;;;1.80;;
60488;SDS011;46331;49.252;8.904;2023-11-19T01:03:17;4.90;;;1.67;;
60488;SDS011;46331;49.252;8.904;2023-11-19T01:03:57;5.63;;;1.97;;
60488;SDS011;46331;49.252;8.904;2023-11-19T01:04:39;4.80;;;1.60;;
60488;SDS011;46331;49.252;8.904;2023-11-19T01:05:20;6.53;;;1.93;;
60488;SDS011;46331;49.252;8.904;2023-11-19T01:06:02;5.50;;;1.73;;
60488;SDS011;46331;49.252;8.904;2023-11-19T01:06:43;4.18;;;1.63;;
60488;SDS011;46331;49.252;8.904;2023-11-19T01:07:24;4.10;;;1.83;;
60488;SDS011;46331;49.252;8.904;2023-11-19T01:08:06;6.75;;;1.77;;
60488;SDS011;46331;49.252;8.904;2023-11-19T01:08:48;4.83;;;1.80;;
60488;SDS011;46331;49.252;8.904;2023-11-19T01:09:28;4.15;;;1.60;;
60488;SDS011;46331;49.252;8.904;2023-11-19T01:10:09;5.97;;;1.73;;
60488;SDS011;46331;49.252;8.904;2023-11-19T01:10:50;5.65;;;1.80;;
60488;SDS011;46331;49.252;8.904;2023-11-19T01:11:30;4.93;;;1.80;;
60488;SDS011;46331;49.252;8.904;2023-11-19T01:12:11;5.43;;;1.70;;
60488;SDS011;46331;49.252;8.904;2023-11-19T01:12:52;5.70;;;2.25;;
60488;SDS011;46331;49.252;8.904;2023-11-19T01:13:33;4.30;;;1.58;;
60488;SDS011;46331;49.252;8.904;2023-11-19T01:14:13;5.43;;;1.70;;
60488;SDS011;46331;49.252;8.904;2023-11-19T01:14:54;5.40;;;2.27;;
60488;SDS011;46331;49.252;8.904;2023-11-19T01:15:36;4.93;;;1.70;;
60488;SDS011;46331;49.252;8.904;2023-11-19T01:16:17;4.57;;;1.90;;
60488;SDS011;46331;49.252;8.904;2023-11-19T01:16:59;4.88;;;1.58;;
60488;SDS011;46331;49.252;8.904;2023-11-19T01:17:40;5.13;;;1.67;;
60488;SDS011;46331;49.252;8.904;2023-11-19T01:18:21;5.93;;;2.07;;
60488;SDS011;46331;49.252;8.904;2023-11-19T01:19:02;6.10;;;2.05;;
60488;SDS011;46331;49.252;8.904;2023-11-19T01:19:45;4.72;;;1.70;;
60488;SDS011;46331;49.252;8.904;2023-11-19T01:20:25;4.50;;;1.80;;
60488;SDS011;46331;49.252;8.904;2023-11-19T01:21:07;4.68;;;1.80;;
60488;SDS011;46331;49.252;8.904;2023-11-19T01:21:47;4.00;;;1.65;;
60488;SDS011;46331;49.252;8.904;2023-11-19T01:22:28;5.35;;;1.90;;
60488;SDS011;46331;49.252;8.904;2023-11-19T01:23:09;4.57;;;1.70;;
60488;SDS011;46331;49.252;8.904;2023-11-19T01:23:49;4.90;;;1.88;;
60488;SDS011;46331;49.252;8.904;2023-11-19T01:24:30;4.30;;;1.80;;
60488;SDS011;46331;49.252;8.904;2023-11-19T01:25:11;4.72;;;1.75;;
60488;SDS011;46331;49.252;8.904;2023-11-19T01:25:52;4.60;;;1.90;;
60488;SDS011;46331;49.252;8.904;2023-11-19T01:26:32;6.17;;;1.67;;
60488;SDS011;46331;49.252;8.904;2023-11-19T01:27:13;3.85;;;1.40;;
60488;SDS011;46331;49.252;8.904;2023-11-19T01:27:54;4.27;;;1.73;;
60488;SDS011;46331;49.252;8.904;2023-11-19T01:28:34;4.50;;;1.67;;
60488;SDS011;46331;49.252;8.904;2023-11-19T01:29:15;4.20;;;1.70;;
60488;SDS011;46331;49.252;8.904;2023-11-19T01:29:55;4.35;;;1.58;;
60488;SDS011;46331;49.252;8.904;2023-11-19T01:30:36;5.47;;;1.65;;
60488;SDS011;46331;49.252;8.904;2023-11-19T01:31:17;4.60;;;1.70;;
60488;SDS011;46331;49.252;8.904;2023-11-19T01:31:57;4.28;;;1.63;;
60488;SDS011;46331;49.252;8.904;2023-11-19T01:32:39;5.77;;;1.80;;
60488;SDS011;46331;49.252;8.904;2023-11-19T01:33:20;5.78;;;2.17;;
60488;SDS011;46331;49.252;8.904;2023-11-19T01:34:01;6.93;;;2.25;;
60488;SDS011;46331;49.252;8.904;2023-11-19T01:34:42;5.72;;;2.42;;
60488;SDS011;46331;49.252;8.904;2023-11-19T01:35:23;4.63;;;1.80;;
60488;SDS011;46331;49.252;8.904;2023-11-19T01:36:03;5.68;;;1.75;;
60488;SDS011;46331;49.252;8.904;2023-11-19T01:36:46;4.68;;;1.90;;
60488;SDS011;46331;49.252;8.904;2023-11-19T01:37:27;4.50;;;1.80;;
60488;SDS011;46331;49.252;8.904;2023-11-19T01:38:07;5.43;;;2.00;;
60488;SDS011;46331;49.252;8.904;2023-11-19T01:38:51;5.57;;;2.17;;
60488;SDS011;46331;49.252;8.904;2023-11-19T01:39:31;5.37;;;2.00;;
60488;SDS011;46331;49.252;8.904;2023-11-19T01:40:12;4.85;;;1.92;;
60488;SDS011;46331;49.252;8.904;2023-11-19T01:40:55;6.20;;;2.07;;
60488;SDS011;46331;49.252;8.904;2023-11-19T01:41:37;5.80;;;2.20;;
60488;SDS011;46331;49.252;8.904;2023-11-19T01:42:19;5.47;;;2.00;;
60488;SDS011;46331;49.252;8.904;2023-11-19T01:42:59;6.07;;;2.00;;
60488;SDS011;46331;49.252;8.904;2023-11-19T01:43:40;4.45;;;1.73;;
60488;SDS011;46331;49.252;8.904;2023-11-19T01:44:23;5.60;;;2.13;;
60488;SDS011;46331;49.252;8.904;2023-11-19T01:45:04;5.60;;;1.87;;
60488;SDS011;46331;49.252;8.904;2023-11-19T01:45:47;5.40;;;1.98;;
60488;SDS011;46331;49.252;8.904;2023-11-19T01:46:30;7.15;;;2.03;;
60488;SDS011;46331;49.252;8.904;2023-11-19T01:47:12;5.25;;;2.10;;
60488;SDS011;46331;49.252;8.904;2023-11-19T01:47:54;5.45;;;2.05;;
60488;SDS011;46331;49.252;8.904;2023-11-19T01:48:36;6.55;;;2.20;;
60488;SDS011;46331;49.252;8.904;2023-11-19T01:49:20;4.77;;;1.93;;
60488;SDS011;46331;49.252;8.904;2023-11-19T01:50:01;5.82;;;2.00;;
60488;SDS011;46331;49.252;8.904;2023-11-19T01:50:46;5.82;;;2.03;;
60488;SDS011;46331;49.252;8.904;2023-11-19T01:51:27;5.50;;;1.73;;
60488;SDS011;46331;49.252;8.904;2023-11-19T01:52:09;5.07;;;1.88;;
60488;SDS011;46331;49.252;8.904;2023-11-19T01:52:49;6.10;;;1.90;;
60488;SDS011;46331;49.252;8.904;2023-11-19T01:53:32;5.60;;;1.92;;
60488;SDS011;46331;49.252;8.904;2023-11-19T01:54:15;5.53;;;2.20;;
60488;SDS011;46331;49.252;8.904;2023-11-19T01:54:56;7.00;;;2.30;;
60488;SDS011;46331;49.252;8.904;2023-11-19T01:55:36;5.18;;;1.80;;
60488;SDS011;46331;49.252;8.904;2023-11-19T01:56:17;5.23;;;1.80;;
60488;SDS011;46331;49.252;8.904;2023-11-19T01:56:58;5.22;;;1.80;;
60488;SDS011;46331;49.252;8.904;2023-11-19T01:57:39;5.68;;;1.90;;
60488;SDS011;46331;49.252;8.904;2023-11-19T01:58:21;6.20;;;1.98;;
60488;SDS011;46331;49.252;8.904;2023-11-19T01:59:03;6.05;;;2.00;;
60488;SDS011;46331;49.252;8.904;2023-11-19T01:59:44;5.38;;;1.80;;
60488;SDS011;46331;49.252;8.904;2023-11-19T02:00:25;5.33;;;2.00;;
60488;SDS011;46331;49.252;8.904;2023-11-19T02:01:06;4.88;;;1.98;;
60488;SDS011;46331;49.252;8.904;2023-11-19T02:01:48;4.70;;;1.95;;
60488;SDS011;46331;49.252;8.904;2023-11-19T02:02:28;4.40;;;1.77;;
60488;SDS011;46331;49.252;8.904;2023-11-19T02:03:10;5.05;;;1.60;;
60488;SDS011;46331;49.252;8.904;2023-11-19T02:03:52;4.88;;;1.90;;
60488;SDS011;46331;49.252;8.904;2023-11-19T02:04:33;4.57;;;1.55;;
60488;SDS011;46331;49.252;8.904;2023-11-19T02:05:15;4.25;;;1.70;;
60488;SDS011;46331;49.252;8.904;2023-11-19T02:05:56;4.95;;;1.77;;
60488;SDS011;46331;49.252;8.904;2023-11-19T02:06:39;4.75;;;1.98;;
60488;SDS011;46331;49.252;8.904;2023-11-19T02:07:23;4.18;;;1.42;;
60488;SDS011;46331;49.252;8.904;2023-11-19T02:08:05;5.03;;;1.60;;
60488;SDS011;46331;49.252;8.904;2023-11-19T02:08:46;7.65;;;1.88;;
60488;SDS011;46331;49.252;8.904;2023-11-19T02:09:26;5.00;;;2.03;;
60488;SDS011;46331;49.252;8.904;2023-11-19T02:10:07;5.55;;;1.73;;
60488;SDS011;46331;49.252;8.904;2023-11-19T02:10:53;5.85;;;2.08;;
60488;SDS011;46331;49.252;8.904;2023-11-19T02:11:39;5.55;;;1.92;;
60488;SDS011;46331;49.252;8.904;2023-11-19T02:12:20;5.57;;;1.88;;
60488;SDS011;46331;49.252;8.904;2023-11-19T02:13:01;5.90;;;2.30;;
60488;SDS011;46331;49.252;8.904;2023-11-19T02:13:42;5.22;;;2.00;;
60488;SDS011;46331;49.252;8.904;2023-11-19T02:14:25;4.55;;;1.80;;
60488;SDS011;46331;49.252;8.904;2023-11-19T02:15:06;5.20;;;1.98;;
60488;SDS011;46331;49.252;8.904;2023-11-19T02:15:47;6.35;;;1.77;;
60488;SDS011;46331;49.252;8.904;2023-11-19T02:16:28;4.40;;;1.60;;
60488;SDS011;46331;49.252;8.904;2023-11-19T02:17:24;5.10;;;1.85;;
60488;SDS011;46331;49.252;8.904;2023-11-19T02:18:21;5.15;;;1.70;;
60488;SDS011;46331;49.252;8.904;2023-11-19T02:19:03;4.60;;;1.63;;
60488;SDS011;46331;49.252;8.904;2023-11-19T02:19:44;4.33;;;1.73;;
60488;SDS011;46331;49.252;8.904;2023-11-19T02:20:24;4.13;;;1.70;;
60488;SDS011;46331;49.252;8.904;2023-11-19T02:21:06;4.35;;;1.70;;
60488;SDS011;46331;49.252;8.904;2023-11-19T02:21:47;4.77;;;1.60;;
60488;SDS011;46331;49.252;8.904;2023-11-19T02:22:27;5.00;;;1.75;;
60488;SDS011;46331;49.252;8.904;2023-11-19T02:23:08;4.57;;;1.73;;
60488;SDS011;46331;49.252;8.904;2023-11-19T02:23:49;5.95;;;2.00;;
60488;SDS011;46331;49.252;8.904;2023-11-19T02:24:29;5.00;;;2.07;;
60488;SDS011;46331;49.252;8.904;2023-11-19T02:25:16;4.53;;;1.93;;
60488;SDS011;46331;49.252;8.904;2023-11-19T02:27:10;7.18;;;1.90;;
60488;SDS011;46331;49.252;8.904;2023-11-19T02:28:00;6.13;;;2.00;;
60488;SDS011;46331;49.252;8.904;2023-11-19T02:28:42;5.28;;;2.20;;
60488;SDS011;46331;49.252;8.904;2023-11-19T02:29:23;5.38;;;2.10;;
60488;SDS011;46331;49.252;8.904;2023-11-19T02:30:04;5.73;;;2.20;;
60488;SDS011;46331;49.252;8.904;2023-11-19T02:30:48;4.65;;;1.90;;
60488;SDS011;46331;49.252;8.904;2023-11-19T02:31:29;5.38;;;2.17;;
60488;SDS011;46331;49.252;8.904;2023-11-19T02:32:09;8.43;;;2.13;;
60488;SDS011;46331;49.252;8.904;2023-11-19T02:32:50;7.60;;;2.40;;
60488;SDS011;46331;49.252;8.904;2023-11-19T02:33:30;5.70;;;2.20;;
60488;SDS011;46331;49.252;8.904;2023-11-19T02:34:11;5.10;;;2.20;;
60488;SDS011;46331;49.252;8.904;2023-11-19T02:34:52;5.10;;;2.13;;
60488;SDS011;46331;49.252;8.904;2023-11-19T02:35:33;6.22;;;2.33;;
60488;SDS011;46331;49.252;8.904;2023-11-19T02:36:14;4.78;;;1.90;;
60488;SDS011;46331;49.252;8.904;2023-11-19T02:36:54;4.63;;;1.90;;
60488;SDS011;46331;49.252;8.904;2023-11-19T02:37:35;5.50;;;2.30;;
60488;SDS011;46331;49.252;8.904;2023-11-19T02:38:15;8.20;;;2.30;;
60488;SDS011;46331;49.252;8.904;2023-11-19T02:38:56;6.30;;;2.30;;
60488;SDS011;46331;49.252;8.904;2023-11-19T02:39:36;7.72;;;2.42;;
60488;SDS011;46331;49.252;8.904;2023-11-19T02:40:17;6.83;;;2.17;;
60488;SDS011;46331;49.252;8.904;2023-11-19T02:40:58;5.60;;;2.30;;
60488;SDS011;46331;49.252;8.904;2023-11-19T02:41:39;7.85;;;2.38;;
60488;SDS011;46331;49.252;8.904;2023-11-19T02:42:20;6.33;;;2.50;;
60488;SDS011;46331;49.252;8.904;2023-11-19T02:43:00;4.63;;;1.90;;
60488;SDS011;46331;49.252;8.904;2023-11-19T02:43:44;5.30;;;2.20;;
60488;SDS011;46331;49.252;8.904;2023-11-19T02:44:25;5.63;;;2.23;;
60488;SDS011;46331;49.252;8.904;2023-11-19T02:45:08;5.10;;;1.65;;
60488;SDS011;46331;49.252;8.904;2023-11-19T02:45:54;6.38;;;2.47;;
60488;SDS011;46331;49.252;8.904;2023-11-19T02:46:35;6.03;;;2.28;;
60488;SDS011;46331;49.252;8.904;2023-11-19T02:47:16;5.07;;;2.20;;
60488;SDS011;46331;49.252;8.904;2023-11-19T02:47:57;5.13;;;2.15;;
60488;SDS011;46331;49.252;8.904;2023-11-19T02:48:37;6.67;;;2.07;;
60488;SDS011;46331;49.252;8.904;2023-11-19T02:49:20;5.20;;;2.38;;
60488;SDS011;46331;49.252;8.904;2023-11-19T02:50:01;6.53;;;2.35;;
60488;SDS011;46331;49.252;8.904;2023-11-19T02:50:42;5.68;;;2.40;;
60488;SDS011;46331;49.252;8.904;2023-11-19T02:51:22;6.33;;;2.50;;
60488;SDS011;46331;49.252;8.904;2023-11-19T02:52:03;5.60;;;2.40;;
60488;SDS011;46331;49.252;8.904;2023-11-19T02:52:46;6.00;;;2.70;;
60488;SDS011;46331;49.252;8.904;2023-11-19T02:53:26;6.90;;;2.60;;
60488;SDS011;46331;49.252;8.904;2023-11-19T02:54:09;5.03;;;2.60;;
60488;SDS011;46331;49.252;8.904;2023-11-19T02:54:50;5.38;;;2.50;;
60488;SDS011;46331;49.252;8.904;2023-11-19T02:55:31;4.88;;;2.28;;
60488;SDS011;46331;49.252;8.904;2023-11-19T02:56:17;5.75;;;2.53;;
60488;SDS011;46331;49.252;8.904;2023-11-19T02:57:06;5.57;;;2.35;;
60488;SDS011;46331;49.252;8.904;2023-11-19T02:57:48;6.50;;;2.78;;
60488;SDS011;46331;49.252;8.904;2023-11-19T02:58:30;5.18;;;2.28;;
60488;SDS011;46331;49.252;8.904;2023-11-19T02:59:10;6.20;;;2.93;;
60488;SDS011;46331;49.252;8.904;2023-11-19T03:00:07;6.47;;;2.50;;
60488;SDS011;46331;49.252;8.904;2023-11-19T03:00:52;5.55;;;2.40;;
60488;SDS011;46331;49.252;8.904;2023-11-19T03:01:37;5.55;;;2.53;;
60488;SDS011;46331;49.252;8.904;2023-11-19T03:02:23;5.82;;;2.60;;
60488;SDS011;46331;49.252;8.904;2023-11-19T03:03:13;5.45;;;2.55;;
60488;SDS011;46331;49.252;8.904;2023-11-19T03:04:06;4.82;;;2.25;;
60488;SDS011;46331;49.252;8.904;2023-11-19T03:04:50;5.90;;;2.60;;
60488;SDS011;46331;49.252;8.904;2023-11-19T03:05:31;7.63;;;2.63;;
60488;SDS011;46331;49.252;8.904;2023-11-19T03:06:11;5.03;;;2.40;;
60488;SDS011;46331;49.252;8.904;2023-11-19T03:06:52;6.33;;;2.53;;
60488;SDS011;46331;49.252;8.904;2023-11-19T03:07:33;5.50;;;1.90;;
60488;SDS011;46331;49.252;8.904;2023-11-19T03:08:14;5.50;;;2.27;;
60488;SDS011;46331;49.252;8.904;2023-11-19T03:08:56;6.22;;;2.33;;
60488;SDS011;46331;49.252;8.904;2023-11-19T03:09:37;5.18;;;2.20;;
60488;SDS011;46331;49.252;8.904;2023-11-19T03:10:20;4.75;;;2.10;;
60488;SDS011;46331;49.252;8.904;2023-11-19T03:11:01;5.23;;;2.30;;
60488;SDS011;46331;49.252;8.904;2023-11-19T03:11:42;5.35;;;2.35;;
60488;SDS011;46331;49.252;8.904;2023-11-19T03:12:22;5.10;;;2.23;;
60488;SDS011;46331;49.252;8.904;2023-11-19T03:13:03;6.38;;;2.08;;
60488;SDS011;46331;49.252;8.904;2023-11-19T03:13:43;6.03;;;2.20;;
60488;SDS011;46331;49.252;8.904;2023-11-19T03:14:24;5.78;;;2.70;;
60488;SDS011;46331;49.252;8.904;2023-11-19T03:15:05;5.77;;;2.47;;
60488;SDS011;46331;49.252;8.904;2023-11-19T03:15:46;5.65;;;2.30;;
60488;SDS011;46331;49.252;8.904;2023-11-19T03:16:26;5.35;;;2.08;;
60488;SDS011;46331;49.252;8.904;2023-11-19T03:17:07;5.30;;;2.00;;
60488;SDS011;46331;49.252;8.904;2023-11-19T03:17:49;5.35;;;2.00;;
60488;SDS011;46331;49.252;8.904;2023-11-19T03:18:30;5.78;;;2.90;;
60488;SDS011;46331;49.252;8.904;2023-11-19T03:19:11;5.03;;;2.33;;
60488;SDS011;46331;49.252;8.904;2023-11-19T03:19:51;5.30;;;2.27;;
60488;SDS011;46331;49.252;8.904;2023-11-19T03:20:32;5.07;;;1.88;;
60488;SDS011;46331;49.252;8.904;2023-11-19T03:21:12;5.13;;;2.03;;
60488;SDS011;46331;49.252;8.904;2023-11-19T03:21:54;6.05;;;2.22;;
60488;SDS011;46331;49.252;8.904;2023-11-19T03:22:36;5.93;;;2.20;;
60488;SDS011;46331;49.252;8.904;2023-11-19T03:23:17;4.47;;;2.08;;
60488;SDS011;46331;49.252;8.904;2023-11-19T03:23:58;5.70;;;2.10;;
60488;SDS011;46331;49.252;8.904;2023-11-19T03:24:41;4.63;;;2.05;;
60488;SDS011;46331;49.252;8.904;2023-11-19T03:25:21;5.03;;;2.22;;
60488;SDS011;46331;49.252;8.904;2023-11-19T03:26:02;4.97;;;2.30;;
60488;SDS011;46331;49.252;8.904;2023-11-19T03:26:49;3.95;;;1.50;;
60488;SDS011;46331;49.252;8.904;2023-11-19T03:27:32;4.93;;;2.00;;
60488;SDS011;46331;49.252;8.904;2023-11-19T03:28:14;4.97;;;1.80;;
60488;SDS011;46331;49.252;8.904;2023-11-19T03:28:55;5.10;;;1.80;;
60488;SDS011;46331;49.252;8.904;2023-11-19T03:29:37;3.45;;;1.10;;
60488;SDS011;46331;49.252;8.904;2023-11-19T03:30:18;4.03;;;1.42;;
60488;SDS011;46331;49.252;8.904;2023-11-19T03:31:01;4.35;;;1.30;;
60488;SDS011;46331;49.252;8.904;2023-11-19T03:31:44;3.15;;;0.98;;
60488;SDS011;46331;49.252;8.904;2023-11-19T03:32:25;4.17;;;0.97;;
60488;SDS011;46331;49.252;8.904;2023-11-19T03:33:06;3.08;;;0.82;;
60488;SDS011;46331;49.252;8.904;2023-11-19T03:33:46;2.80;;;0.80;;
60488;SDS011;46331;49.252;8.904;2023-11-19T03:34:27;3.10;;;0.70;;
60488;SDS011;46331;49.252;8.904;2023-11-19T03:35:07;2.73;;;0.50;;
60488;SDS011;46331;49.252;8.904;2023-11-19T03:35:49;2.00;;;0.40;;
60488;SDS011;46331;49.252;8.904;2023-11-19T03:36:31;1.88;;;0.50;;
60488;SDS011;46331;49.252;8.904;2023-11-19T03:37:13;1.38;;;0.38;;
60488;SDS011;46331;49.252;8.904;2023-11-19T03:37:57;1.65;;;0.43;;
60488;SDS011;46331;49.252;8.904;2023-11-19T03:38:38;2.65;;;0.70;;
60488;SDS011;46331;49.252;8.904;2023-11-19T03:39:19;2.17;;;0.50;;
60488;SDS011;46331;49.252;8.904;2023-11-19T03:39:59;2.97;;;0.50;;
60488;SDS011;46331;49.252;8.904;2023-11-19T03:40:40;2.40;;;0.47;;
60488;SDS011;46331;49.252;8.904;2023-11-19T03:41:21;1.42;;;0.40;;
60488;SDS011;46331;49.252;8.904;2023-11-19T03:42:01;4.77;;;0.67;;
60488;SDS011;46331;49.252;8.904;2023-11-19T03:42:43;1.95;;;0.40;;
60488;SDS011;46331;49.252;8.904;2023-11-19T03:43:24;3.83;;;0.50;;
60488;SDS011;46331;49.252;8.904;2023-11-19T03:44:05;1.37;;;0.47;;
60488;SDS011;46331;49.252;8.904;2023-11-19T03:44:46;1.40;;;0.30;;
60488;SDS011;46331;49.252;8.904;2023-11-19T03:45:26;1.45;;;0.30;;
60488;SDS011;46331;49.252;8.904;2023-11-19T03:46:17;1.92;;;0.40;;
60488;SDS011;46331;49.252;8.904;2023-11-19T03:46:59;4.78;;;0.40;;
60488;SDS011;46331;49.252;8.904;2023-11-19T03:47:39;2.70;;;0.50;;
60488;SDS011;46331;49.252;8.904;2023-11-19T03:48:20;3.27;;;0.40;;
60488;SDS011;46331;49.252;8.904;2023-11-19T03:49:00;1.60;;;0.30;;
60488;SDS011;46331;49.252;8.904;2023-11-19T03:49:41;2.87;;;0.37;;
60488;SDS011;46331;49.252;8.904;2023-11-19T03:50:22;2.42;;;0.68;;
60488;SDS011;46331;49.252;8.904;2023-11-19T03:51:02;2.17;;;0.30;;
60488;SDS011;46331;49.252;8.904;2023-11-19T03:51:43;1.13;;;0.30;;
60488;SDS011;46331;49.252;8.904;2023-11-19T03:52:23;2.30;;;0.33;;
60488;SDS011;46331;49.252;8.904;2023-11-19T03:53:04;1.85;;;0.40;;
60488;SDS011;46331;49.252;8.904;2023-11-19T03:53:45;1.02;;;0.30;;
60488;SDS011;46331;49.252;8.904;2023-11-19T03:54:26;1.53;;;0.30;;
60488;SDS011;46331;49.252;8.904;2023-11-19T03:55:07;0.93;;;0.20;;
60488;SDS011;46331;49.252;8.904;2023-11-19T03:55:48;2.63;;;0.30;;
60488;SDS011;46331;49.252;8.904;2023-11-19T03:56:30;1.83;;;0.47;;
60488;SDS011;46331;49.252;8.904;2023-11-19T03:57:12;2.80;;;0.50;;
60488;SDS011;46331;49.252;8.904;2023-11-19T03:57:53;3.30;;;0.40;;
60488;SDS011;46331;49.252;8.904;2023-11-19T03:58:33;1.65;;;0.25;;
60488;SDS011;46331;49.252;8.904;2023-11-19T03:59:14;5.20;;;0.40;;
60488;SDS011;46331;49.252;8.904;2023-11-19T03:59:55;2.20;;;0.40;;
60488;SDS011;46331;49.252;8.904;2023-11-19T04:00:36;2.97;;;0.40;;
60488;SDS011;46331;49.252;8.904;2023-11-19T04:01:16;1.25;;;0.30;;
60488;SDS011;46331;49.252;8.904;2023-11-19T04:01:57;1.25;;;0.28;;
60488;SDS011;46331;49.252;8.904;2023-11-19T04:02:41;1.53;;;0.30;;
60488;SDS011;46331;49.252;8.904;2023-11-19T04:03:21;0.98;;;0.28;;
60488;SDS011;46331;49.252;8.904;2023-11-19T04:04:02;2.13;;;0.30;;
60488;SDS011;46331;49.252;8.904;2023-11-19T04:04:43;1.20;;;0.40;;
60488;SDS011;46331;49.252;8.904;2023-11-19T04:05:23;1.17;;;0.30;;
60488;SDS011;46331;49.252;8.904;2023-11-19T04:06:04;1.90;;;0.30;;
60488;SDS011;46331;49.252;8.904;2023-11-19T04:06:45;1.38;;;0.30;;
60488;SDS011;46331;49.252;8.904;2023-11-19T04:07:25;1.03;;;0.30;;
60488;SDS011;46331;49.252;8.904;2023-11-19T04:08:06;2.65;;;0.30;;
60488;SDS011;46331;49.252;8.904;2023-11-19T04:08:46;1.83;;;0.33;;
60488;SDS011;46331;49.252;8.904;2023-11-19T04:09:27;1.67;;;0.30;;
60488;SDS011;46331;49.252;8.904;2023-11-19T04:10:07;2.27;;;0.47;;
60488;SDS011;46331;49.252;8.904;2023-11-19T04:10:48;1.40;;;0.28;;
60488;SDS011;46331;49.252;8.904;2023-11-19T04:11:29;1.00;;;0.20;;